sensor_id;sensor_type;location;lat;lon;timestamp;P1;durP1;ratioP1;P2;durP2;ratioP2
78308;SDS011;67566;42.022;21.356;2023-12-22T00:01:39;105.43;;;56.42;;
78308;SDS011;67566;42.022;21.356;2023-12-22T00:04:04;91.60;;;54.72;;
78308;SDS011;67566;42.022;21.356;2023-12-22T00:06:31;96.15;;;50.65;;
78308;SDS011;67566;42.022;21.356;2023-12-22T00:08:57;88.40;;;50.08;;
78308;SDS011;67566;42.022;21.356;2023-12-22T00:11:23;82.00;;;46.47;;
78308;SDS011;67566;42.022;21.356;2023-12-22T00:13:48;84.85;;;50.72;;
78308;SDS011;67566;42.022;21.356;2023-12-22T00:16:14;102.75;;;54.05;;
78308;SDS011;67566;42.022;21.356;2023-12-22T00:18:39;98.57;;;55.78;;
78308;SDS011;67566;42.022;21.356;2023-12-22T00:21:04;111.45;;;63.10;;
78308;SDS011;67566;42.022;21.356;2023-12-22T00:23:34;111.82;;;60.75;;
78308;SDS011;67566;42.022;21.356;2023-12-22T00:26:00;101.35;;;60.10;;
78308;SDS011;67566;42.022;21.356;2023-12-22T00:28:26;111.60;;;62.40;;
78308;SDS011;67566;42.022;21.356;2023-12-22T00:30:52;103.93;;;57.92;;
78308;SDS011;67566;42.022;21.356;2023-12-22T00:33:17;106.32;;;55.70;;
78308;SDS011;67566;42.022;21.356;2023-12-22T00:35:43;120.28;;;64.22;;
78308;SDS011;67566;42.022;21.356;2023-12-22T00:38:08;116.32;;;64.88;;
78308;SDS011;67566;42.022;21.356;2023-12-22T00:40:35;124.18;;;64.03;;
78308;SDS011;67566;42.022;21.356;2023-12-22T00:43:00;129.70;;;68.80;;
78308;SDS011;67566;42.022;21.356;2023-12-22T00:45:26;121.03;;;67.65;;
78308;SDS011;67566;42.022;21.356;2023-12-22T00:47:51;111.82;;;64.20;;
78308;SDS011;67566;42.022;21.356;2023-12-22T00:50:17;103.47;;;57.72;;
78308;SDS011;67566;42.022;21.356;2023-12-22T00:52:43;75.88;;;45.92;;
78308;SDS011;67566;42.022;21.356;2023-12-22T00:55:08;78.47;;;43.25;;
78308;SDS011;67566;42.022;21.356;2023-12-22T00:57:34;70.57;;;38.15;;
78308;SDS011;67566;42.022;21.356;2023-12-22T00:59:59;71.78;;;40.08;;
78308;SDS011;67566;42.022;21.356;2023-12-22T01:02:25;69.03;;;41.35;;
78308;SDS011;67566;42.022;21.356;2023-12-22T01:04:50;74.97;;;43.50;;
78308;SDS011;67566;42.022;21.356;2023-12-22T01:07:15;72.95;;;40.75;;
78308;SDS011;67566;42.022;21.356;2023-12-22T01:09:42;75.65;;;43.00;;
78308;SDS011;67566;42.022;21.356;2023-12-22T01:12:07;77.38;;;48.80;;
78308;SDS011;67566;42.022;21.356;2023-12-22T01:14:35;87.57;;;48.25;;
78308;SDS011;67566;42.022;21.356;2023-12-22T01:17:01;114.38;;;59.85;;
78308;SDS011;67566;42.022;21.356;2023-12-22T01:19:26;104.57;;;59.83;;
78308;SDS011;67566;42.022;21.356;2023-12-22T01:21:52;104.40;;;57.25;;
78308;SDS011;67566;42.022;21.356;2023-12-22T01:24:17;104.25;;;58.72;;
78308;SDS011;67566;42.022;21.356;2023-12-22T01:26:43;102.65;;;56.38;;
78308;SDS011;67566;42.022;21.356;2023-12-22T01:29:08;100.38;;;53.78;;
78308;SDS011;67566;42.022;21.356;2023-12-22T01:31:34;96.45;;;53.30;;
78308;SDS011;67566;42.022;21.356;2023-12-22T01:33:59;98.03;;;54.10;;
78308;SDS011;67566;42.022;21.356;2023-12-22T01:36:25;95.55;;;54.53;;
78308;SDS011;67566;42.022;21.356;2023-12-22T01:38:50;96.38;;;52.85;;
78308;SDS011;67566;42.022;21.356;2023-12-22T01:41:16;89.20;;;48.50;;
78308;SDS011;67566;42.022;21.356;2023-12-22T01:43:41;86.30;;;44.47;;
78308;SDS011;67566;42.022;21.356;2023-12-22T01:46:07;66.35;;;36.85;;
78308;SDS011;67566;42.022;21.356;2023-12-22T01:48:33;70.63;;;39.17;;
78308;SDS011;67566;42.022;21.356;2023-12-22T01:51:00;64.55;;;38.30;;
78308;SDS011;67566;42.022;21.356;2023-12-22T01:53:26;62.30;;;34.83;;
78308;SDS011;67566;42.022;21.356;2023-12-22T01:55:54;54.38;;;30.58;;
78308;SDS011;67566;42.022;21.356;2023-12-22T01:58:22;64.90;;;39.05;;
78308;SDS011;67566;42.022;21.356;2023-12-22T02:00:49;63.08;;;38.17;;
78308;SDS011;67566;42.022;21.356;2023-12-22T02:03:14;61.00;;;34.53;;
78308;SDS011;67566;42.022;21.356;2023-12-22T02:05:41;68.20;;;38.70;;
78308;SDS011;67566;42.022;21.356;2023-12-22T02:08:08;66.97;;;38.95;;
78308;SDS011;67566;42.022;21.356;2023-12-22T02:10:34;85.30;;;48.63;;
78308;SDS011;67566;42.022;21.356;2023-12-22T02:13:01;77.47;;;43.08;;
78308;SDS011;67566;42.022;21.356;2023-12-22T02:15:28;85.28;;;49.78;;
78308;SDS011;67566;42.022;21.356;2023-12-22T02:20:38;89.35;;;51.25;;
78308;SDS011;67566;42.022;21.356;2023-12-22T02:23:03;74.65;;;44.45;;
78308;SDS011;67566;42.022;21.356;2023-12-22T02:25:29;86.60;;;49.17;;
78308;SDS011;67566;42.022;21.356;2023-12-22T02:27:58;78.35;;;45.45;;
78308;SDS011;67566;42.022;21.356;2023-12-22T02:30:39;75.60;;;44.38;;
78308;SDS011;67566;42.022;21.356;2023-12-22T02:33:25;79.32;;;46.83;;
78308;SDS011;67566;42.022;21.356;2023-12-22T02:35:53;84.88;;;46.90;;
78308;SDS011;67566;42.022;21.356;2023-12-22T02:38:28;83.63;;;49.28;;
78308;SDS011;67566;42.022;21.356;2023-12-22T02:40:54;84.45;;;46.65;;
78308;SDS011;67566;42.022;21.356;2023-12-22T02:43:21;84.00;;;47.45;;
78308;SDS011;67566;42.022;21.356;2023-12-22T02:45:49;88.20;;;48.20;;
78308;SDS011;67566;42.022;21.356;2023-12-22T02:48:16;80.47;;;44.78;;
78308;SDS011;67566;42.022;21.356;2023-12-22T02:50:41;72.88;;;42.90;;
78308;SDS011;67566;42.022;21.356;2023-12-22T02:53:07;72.70;;;39.47;;
78308;SDS011;67566;42.022;21.356;2023-12-22T02:55:32;77.18;;;42.65;;
78308;SDS011;67566;42.022;21.356;2023-12-22T02:57:58;73.38;;;38.97;;
78308;SDS011;67566;42.022;21.356;2023-12-22T03:00:24;76.68;;;43.25;;
78308;SDS011;67566;42.022;21.356;2023-12-22T03:02:49;78.72;;;43.83;;
78308;SDS011;67566;42.022;21.356;2023-12-22T03:05:15;82.75;;;42.40;;
78308;SDS011;67566;42.022;21.356;2023-12-22T03:07:40;77.45;;;41.20;;
78308;SDS011;67566;42.022;21.356;2023-12-22T03:10:05;73.18;;;42.63;;
78308;SDS011;67566;42.022;21.356;2023-12-22T03:12:31;74.70;;;42.58;;
78308;SDS011;67566;42.022;21.356;2023-12-22T03:14:57;75.28;;;41.10;;
78308;SDS011;67566;42.022;21.356;2023-12-22T03:17:22;76.13;;;39.60;;
78308;SDS011;67566;42.022;21.356;2023-12-22T03:19:48;67.43;;;38.42;;
78308;SDS011;67566;42.022;21.356;2023-12-22T03:22:13;70.60;;;38.85;;
78308;SDS011;67566;42.022;21.356;2023-12-22T03:24:38;74.95;;;43.08;;
78308;SDS011;67566;42.022;21.356;2023-12-22T03:27:04;74.13;;;41.78;;
78308;SDS011;67566;42.022;21.356;2023-12-22T03:29:29;65.47;;;39.70;;
78308;SDS011;67566;42.022;21.356;2023-12-22T03:31:55;70.13;;;38.60;;
78308;SDS011;67566;42.022;21.356;2023-12-22T03:34:20;72.97;;;42.78;;
78308;SDS011;67566;42.022;21.356;2023-12-22T03:36:46;68.07;;;39.85;;
78308;SDS011;67566;42.022;21.356;2023-12-22T03:39:14;66.80;;;40.00;;
78308;SDS011;67566;42.022;21.356;2023-12-22T03:41:40;67.55;;;40.10;;
78308;SDS011;67566;42.022;21.356;2023-12-22T03:44:06;73.05;;;42.80;;
78308;SDS011;67566;42.022;21.356;2023-12-22T03:46:32;62.70;;;37.65;;
78308;SDS011;67566;42.022;21.356;2023-12-22T03:48:57;77.18;;;44.50;;
78308;SDS011;67566;42.022;21.356;2023-12-22T03:51:23;74.80;;;42.80;;
78308;SDS011;67566;42.022;21.356;2023-12-22T03:53:48;82.22;;;44.80;;
78308;SDS011;67566;42.022;21.356;2023-12-22T03:56:14;74.25;;;40.67;;
78308;SDS011;67566;42.022;21.356;2023-12-22T03:58:39;76.90;;;43.28;;
78308;SDS011;67566;42.022;21.356;2023-12-22T04:01:05;73.93;;;42.55;;
78308;SDS011;67566;42.022;21.356;2023-12-22T04:03:32;73.75;;;43.05;;
78308;SDS011;67566;42.022;21.356;2023-12-22T04:06:01;68.38;;;39.17;;
78308;SDS011;67566;42.022;21.356;2023-12-22T04:08:29;75.45;;;42.38;;
78308;SDS011;67566;42.022;21.356;2023-12-22T04:10:55;78.78;;;44.58;;
78308;SDS011;67566;42.022;21.356;2023-12-22T04:13:20;75.63;;;42.72;;
78308;SDS011;67566;42.022;21.356;2023-12-22T04:15:46;69.88;;;38.97;;
78308;SDS011;67566;42.022;21.356;2023-12-22T04:18:11;65.80;;;36.58;;
78308;SDS011;67566;42.022;21.356;2023-12-22T04:20:37;60.60;;;36.33;;
78308;SDS011;67566;42.022;21.356;2023-12-22T04:23:02;60.53;;;35.78;;
78308;SDS011;67566;42.022;21.356;2023-12-22T04:25:28;62.22;;;37.42;;
78308;SDS011;67566;42.022;21.356;2023-12-22T04:27:53;59.53;;;35.72;;
78308;SDS011;67566;42.022;21.356;2023-12-22T04:30:19;56.33;;;34.13;;
78308;SDS011;67566;42.022;21.356;2023-12-22T04:32:44;60.67;;;38.65;;
78308;SDS011;67566;42.022;21.356;2023-12-22T04:35:10;64.47;;;35.25;;
78308;SDS011;67566;42.022;21.356;2023-12-22T04:37:35;56.67;;;33.58;;
78308;SDS011;67566;42.022;21.356;2023-12-22T04:40:01;56.88;;;34.67;;
78308;SDS011;67566;42.022;21.356;2023-12-22T04:42:27;58.25;;;35.40;;
78308;SDS011;67566;42.022;21.356;2023-12-22T04:44:53;67.97;;;39.63;;
78308;SDS011;67566;42.022;21.356;2023-12-22T04:47:18;68.85;;;39.78;;
78308;SDS011;67566;42.022;21.356;2023-12-22T04:49:44;74.90;;;43.50;;
78308;SDS011;67566;42.022;21.356;2023-12-22T04:52:10;65.10;;;39.47;;
78308;SDS011;67566;42.022;21.356;2023-12-22T04:54:37;67.53;;;37.38;;
78308;SDS011;67566;42.022;21.356;2023-12-22T04:57:03;70.32;;;39.15;;
78308;SDS011;67566;42.022;21.356;2023-12-22T04:59:28;61.70;;;35.72;;
78308;SDS011;67566;42.022;21.356;2023-12-22T05:01:54;61.95;;;37.72;;
78308;SDS011;67566;42.022;21.356;2023-12-22T05:04:20;66.68;;;35.85;;
78308;SDS011;67566;42.022;21.356;2023-12-22T05:06:46;59.05;;;37.83;;
78308;SDS011;67566;42.022;21.356;2023-12-22T05:09:12;62.20;;;37.55;;
78308;SDS011;67566;42.022;21.356;2023-12-22T05:11:37;63.05;;;36.28;;
78308;SDS011;67566;42.022;21.356;2023-12-22T05:14:03;63.42;;;37.75;;
78308;SDS011;67566;42.022;21.356;2023-12-22T05:16:29;65.47;;;38.03;;
78308;SDS011;67566;42.022;21.356;2023-12-22T05:18:56;67.68;;;38.17;;
78308;SDS011;67566;42.022;21.356;2023-12-22T05:21:25;64.85;;;38.88;;
78308;SDS011;67566;42.022;21.356;2023-12-22T05:23:50;69.07;;;39.70;;
78308;SDS011;67566;42.022;21.356;2023-12-22T05:26:19;72.18;;;40.88;;
78308;SDS011;67566;42.022;21.356;2023-12-22T05:28:46;66.93;;;40.20;;
78308;SDS011;67566;42.022;21.356;2023-12-22T05:31:11;62.05;;;40.67;;
78308;SDS011;67566;42.022;21.356;2023-12-22T05:33:37;68.95;;;39.20;;
78308;SDS011;67566;42.022;21.356;2023-12-22T05:36:03;65.40;;;39.38;;
78308;SDS011;67566;42.022;21.356;2023-12-22T05:38:29;67.10;;;38.47;;
78308;SDS011;67566;42.022;21.356;2023-12-22T05:40:55;78.57;;;43.08;;
78308;SDS011;67566;42.022;21.356;2023-12-22T05:43:21;90.25;;;49.42;;
78308;SDS011;67566;42.022;21.356;2023-12-22T05:45:46;84.47;;;49.40;;
78308;SDS011;67566;42.022;21.356;2023-12-22T05:48:12;76.80;;;46.55;;
78308;SDS011;67566;42.022;21.356;2023-12-22T05:50:37;78.07;;;46.50;;
78308;SDS011;67566;42.022;21.356;2023-12-22T05:53:03;72.18;;;41.83;;
78308;SDS011;67566;42.022;21.356;2023-12-22T05:55:28;76.70;;;44.90;;
78308;SDS011;67566;42.022;21.356;2023-12-22T05:57:54;72.88;;;44.22;;
78308;SDS011;67566;42.022;21.356;2023-12-22T06:00:20;81.32;;;48.95;;
78308;SDS011;67566;42.022;21.356;2023-12-22T06:02:46;89.13;;;49.17;;
78308;SDS011;67566;42.022;21.356;2023-12-22T06:05:12;87.93;;;50.70;;
78308;SDS011;67566;42.022;21.356;2023-12-22T06:07:38;83.25;;;50.20;;
78308;SDS011;67566;42.022;21.356;2023-12-22T06:10:04;76.70;;;47.75;;
78308;SDS011;67566;42.022;21.356;2023-12-22T06:12:30;75.22;;;43.70;;
78308;SDS011;67566;42.022;21.356;2023-12-22T06:14:56;90.75;;;49.38;;
78308;SDS011;67566;42.022;21.356;2023-12-22T06:17:21;83.22;;;47.85;;
78308;SDS011;67566;42.022;21.356;2023-12-22T06:19:47;93.10;;;54.63;;
78308;SDS011;67566;42.022;21.356;2023-12-22T06:22:12;89.97;;;52.78;;
78308;SDS011;67566;42.022;21.356;2023-12-22T06:24:37;90.05;;;51.30;;
78308;SDS011;67566;42.022;21.356;2023-12-22T06:27:03;86.97;;;50.75;;
78308;SDS011;67566;42.022;21.356;2023-12-22T06:29:29;77.28;;;50.13;;
78308;SDS011;67566;42.022;21.356;2023-12-22T06:31:55;82.55;;;51.92;;
78308;SDS011;67566;42.022;21.356;2023-12-22T06:34:21;83.78;;;49.97;;
78308;SDS011;67566;42.022;21.356;2023-12-22T06:36:47;84.70;;;50.83;;
78308;SDS011;67566;42.022;21.356;2023-12-22T06:39:15;100.60;;;56.58;;
78308;SDS011;67566;42.022;21.356;2023-12-22T06:41:40;92.47;;;52.80;;
78308;SDS011;67566;42.022;21.356;2023-12-22T06:44:06;90.13;;;53.53;;
78308;SDS011;67566;42.022;21.356;2023-12-22T06:46:32;91.60;;;52.42;;
78308;SDS011;67566;42.022;21.356;2023-12-22T06:48:58;78.30;;;45.65;;
78308;SDS011;67566;42.022;21.356;2023-12-22T06:51:25;81.57;;;48.20;;
78308;SDS011;67566;42.022;21.356;2023-12-22T06:53:57;78.22;;;48.28;;
78308;SDS011;67566;42.022;21.356;2023-12-22T06:56:25;84.85;;;52.63;;
78308;SDS011;67566;42.022;21.356;2023-12-22T06:58:53;77.55;;;46.97;;
78308;SDS011;67566;42.022;21.356;2023-12-22T07:01:20;89.28;;;52.90;;
78308;SDS011;67566;42.022;21.356;2023-12-22T07:03:56;81.63;;;52.03;;
78308;SDS011;67566;42.022;21.356;2023-12-22T07:06:23;81.50;;;50.60;;
78308;SDS011;67566;42.022;21.356;2023-12-22T07:11:44;118.32;;;68.82;;
78308;SDS011;67566;42.022;21.356;2023-12-22T07:14:12;104.15;;;60.33;;
78308;SDS011;67566;42.022;21.356;2023-12-22T07:16:38;92.03;;;54.22;;
78308;SDS011;67566;42.022;21.356;2023-12-22T07:19:04;135.45;;;72.75;;
78308;SDS011;67566;42.022;21.356;2023-12-22T07:21:30;96.80;;;56.72;;
78308;SDS011;67566;42.022;21.356;2023-12-22T07:23:55;95.55;;;57.55;;
78308;SDS011;67566;42.022;21.356;2023-12-22T07:26:21;99.90;;;58.22;;
78308;SDS011;67566;42.022;21.356;2023-12-22T07:28:49;97.95;;;57.05;;
78308;SDS011;67566;42.022;21.356;2023-12-22T07:31:14;94.07;;;58.47;;
78308;SDS011;67566;42.022;21.356;2023-12-22T07:33:40;112.63;;;65.60;;
78308;SDS011;67566;42.022;21.356;2023-12-22T07:36:06;116.82;;;65.55;;
78308;SDS011;67566;42.022;21.356;2023-12-22T07:38:32;107.22;;;62.65;;
78308;SDS011;67566;42.022;21.356;2023-12-22T07:40:58;90.63;;;54.65;;
78308;SDS011;67566;42.022;21.356;2023-12-22T07:43:23;83.50;;;52.42;;
78308;SDS011;67566;42.022;21.356;2023-12-22T07:45:49;89.68;;;53.78;;
78308;SDS011;67566;42.022;21.356;2023-12-22T07:48:16;89.60;;;55.42;;
78308;SDS011;67566;42.022;21.356;2023-12-22T07:50:42;90.35;;;54.45;;
78308;SDS011;67566;42.022;21.356;2023-12-22T07:53:08;88.45;;;53.80;;
78308;SDS011;67566;42.022;21.356;2023-12-22T07:55:33;75.55;;;47.00;;
78308;SDS011;67566;42.022;21.356;2023-12-22T07:57:59;77.80;;;44.50;;
78308;SDS011;67566;42.022;21.356;2023-12-22T08:00:25;84.90;;;49.72;;
78308;SDS011;67566;42.022;21.356;2023-12-22T08:02:50;84.20;;;49.10;;
78308;SDS011;67566;42.022;21.356;2023-12-22T08:05:17;82.07;;;47.50;;
78308;SDS011;67566;42.022;21.356;2023-12-22T08:07:43;77.57;;;48.88;;
78308;SDS011;67566;42.022;21.356;2023-12-22T08:10:09;79.90;;;46.53;;
78308;SDS011;67566;42.022;21.356;2023-12-22T08:12:35;77.90;;;45.55;;
78308;SDS011;67566;42.022;21.356;2023-12-22T08:15:00;83.03;;;48.17;;
78308;SDS011;67566;42.022;21.356;2023-12-22T08:17:26;80.10;;;47.47;;
78308;SDS011;67566;42.022;21.356;2023-12-22T08:19:52;82.85;;;49.35;;
78308;SDS011;67566;42.022;21.356;2023-12-22T08:22:18;100.20;;;56.60;;
78308;SDS011;67566;42.022;21.356;2023-12-22T08:24:43;77.63;;;46.80;;
78308;SDS011;67566;42.022;21.356;2023-12-22T08:27:10;85.10;;;49.60;;
78308;SDS011;67566;42.022;21.356;2023-12-22T08:29:35;86.88;;;51.30;;
78308;SDS011;67566;42.022;21.356;2023-12-22T08:32:01;88.85;;;55.72;;
78308;SDS011;67566;42.022;21.356;2023-12-22T08:34:29;83.10;;;53.60;;
78308;SDS011;67566;42.022;21.356;2023-12-22T08:36:54;90.18;;;57.35;;
78308;SDS011;67566;42.022;21.356;2023-12-22T08:39:20;88.13;;;49.10;;
78308;SDS011;67566;42.022;21.356;2023-12-22T08:41:45;89.70;;;55.22;;
78308;SDS011;67566;42.022;21.356;2023-12-22T08:44:13;94.32;;;53.72;;
78308;SDS011;67566;42.022;21.356;2023-12-22T08:46:39;89.45;;;51.10;;
78308;SDS011;67566;42.022;21.356;2023-12-22T08:49:05;88.10;;;53.38;;
78308;SDS011;67566;42.022;21.356;2023-12-22T08:51:32;87.25;;;53.38;;
78308;SDS011;67566;42.022;21.356;2023-12-22T08:53:59;88.43;;;53.70;;
78308;SDS011;67566;42.022;21.356;2023-12-22T08:56:24;89.43;;;51.05;;
78308;SDS011;67566;42.022;21.356;2023-12-22T08:58:51;84.03;;;48.00;;
78308;SDS011;67566;42.022;21.356;2023-12-22T09:01:19;83.55;;;44.85;;
78308;SDS011;67566;42.022;21.356;2023-12-22T09:03:46;76.25;;;44.35;;
78308;SDS011;67566;42.022;21.356;2023-12-22T09:06:17;127.03;;;65.45;;
78308;SDS011;67566;42.022;21.356;2023-12-22T09:08:46;84.68;;;44.97;;
78308;SDS011;67566;42.022;21.356;2023-12-22T09:11:12;78.78;;;40.97;;
78308;SDS011;67566;42.022;21.356;2023-12-22T09:13:39;74.07;;;40.42;;
78308;SDS011;67566;42.022;21.356;2023-12-22T09:16:06;67.30;;;41.55;;
78308;SDS011;67566;42.022;21.356;2023-12-22T09:18:32;91.53;;;48.75;;
78308;SDS011;67566;42.022;21.356;2023-12-22T09:20:58;65.20;;;36.22;;
78308;SDS011;67566;42.022;21.356;2023-12-22T09:23:24;65.10;;;37.17;;
78308;SDS011;67566;42.022;21.356;2023-12-22T09:25:50;58.28;;;33.58;;
78308;SDS011;67566;42.022;21.356;2023-12-22T09:28:15;60.30;;;32.60;;
78308;SDS011;67566;42.022;21.356;2023-12-22T09:30:41;66.10;;;35.60;;
78308;SDS011;67566;42.022;21.356;2023-12-22T09:33:07;59.85;;;32.13;;
78308;SDS011;67566;42.022;21.356;2023-12-22T09:35:34;60.88;;;30.92;;
78308;SDS011;67566;42.022;21.356;2023-12-22T09:38:00;51.75;;;29.48;;
78308;SDS011;67566;42.022;21.356;2023-12-22T09:40:25;46.20;;;29.67;;
78308;SDS011;67566;42.022;21.356;2023-12-22T09:42:52;48.25;;;28.75;;
78308;SDS011;67566;42.022;21.356;2023-12-22T09:45:19;41.28;;;25.13;;
78308;SDS011;67566;42.022;21.356;2023-12-22T09:47:47;55.55;;;30.77;;
78308;SDS011;67566;42.022;21.356;2023-12-22T09:50:14;53.10;;;30.73;;
78308;SDS011;67566;42.022;21.356;2023-12-22T09:52:42;56.72;;;31.40;;
78308;SDS011;67566;42.022;21.356;2023-12-22T09:55:09;57.92;;;31.23;;
78308;SDS011;67566;42.022;21.356;2023-12-22T09:57:35;49.25;;;30.00;;
78308;SDS011;67566;42.022;21.356;2023-12-22T10:00:03;56.13;;;31.65;;
78308;SDS011;67566;42.022;21.356;2023-12-22T10:02:31;54.45;;;31.60;;
78308;SDS011;67566;42.022;21.356;2023-12-22T10:05:00;48.63;;;29.60;;
78308;SDS011;67566;42.022;21.356;2023-12-22T10:07:25;56.33;;;33.17;;
78308;SDS011;67566;42.022;21.356;2023-12-22T10:09:51;56.60;;;36.05;;
78308;SDS011;67566;42.022;21.356;2023-12-22T10:12:19;56.65;;;33.67;;
78308;SDS011;67566;42.022;21.356;2023-12-22T10:14:45;54.72;;;32.90;;
78308;SDS011;67566;42.022;21.356;2023-12-22T10:17:12;57.13;;;31.60;;
78308;SDS011;67566;42.022;21.356;2023-12-22T10:19:39;57.88;;;31.63;;
78308;SDS011;67566;42.022;21.356;2023-12-22T10:22:04;66.20;;;38.50;;
78308;SDS011;67566;42.022;21.356;2023-12-22T10:27:07;57.10;;;33.08;;
78308;SDS011;67566;42.022;21.356;2023-12-22T10:29:33;58.03;;;31.13;;
78308;SDS011;67566;42.022;21.356;2023-12-22T10:32:02;52.25;;;31.08;;
78308;SDS011;67566;42.022;21.356;2023-12-22T10:34:29;59.65;;;33.33;;
78308;SDS011;67566;42.022;21.356;2023-12-22T10:36:56;61.78;;;35.50;;
78308;SDS011;67566;42.022;21.356;2023-12-22T10:39:22;53.92;;;31.65;;
78308;SDS011;67566;42.022;21.356;2023-12-22T10:41:50;61.22;;;35.20;;
78308;SDS011;67566;42.022;21.356;2023-12-22T10:44:15;54.67;;;32.25;;
78308;SDS011;67566;42.022;21.356;2023-12-22T10:46:44;52.15;;;33.05;;
78308;SDS011;67566;42.022;21.356;2023-12-22T10:49:12;66.70;;;40.47;;
78308;SDS011;67566;42.022;21.356;2023-12-22T10:51:38;80.15;;;47.25;;
78308;SDS011;67566;42.022;21.356;2023-12-22T10:54:06;59.63;;;32.80;;
78308;SDS011;67566;42.022;21.356;2023-12-22T10:56:31;51.28;;;31.00;;
78308;SDS011;67566;42.022;21.356;2023-12-22T10:58:57;55.45;;;30.55;;
78308;SDS011;67566;42.022;21.356;2023-12-22T11:01:24;48.38;;;30.08;;
78308;SDS011;67566;42.022;21.356;2023-12-22T11:03:54;69.25;;;37.92;;
78308;SDS011;67566;42.022;21.356;2023-12-22T11:06:26;66.85;;;34.55;;
78308;SDS011;67566;42.022;21.356;2023-12-22T11:08:54;65.88;;;34.88;;
78308;SDS011;67566;42.022;21.356;2023-12-22T11:11:32;211.48;;;97.38;;
78308;SDS011;67566;42.022;21.356;2023-12-22T11:13:59;219.57;;;99.47;;
78308;SDS011;67566;42.022;21.356;2023-12-22T11:16:27;113.00;;;54.03;;
78308;SDS011;67566;42.022;21.356;2023-12-22T11:18:55;91.07;;;44.58;;
78308;SDS011;67566;42.022;21.356;2023-12-22T11:21:24;66.03;;;36.03;;
78308;SDS011;67566;42.022;21.356;2023-12-22T11:23:50;54.30;;;33.80;;
78308;SDS011;67566;42.022;21.356;2023-12-22T11:26:17;55.30;;;30.55;;
78308;SDS011;67566;42.022;21.356;2023-12-22T11:28:47;118.00;;;59.13;;
78308;SDS011;67566;42.022;21.356;2023-12-22T11:31:14;81.35;;;43.97;;
78308;SDS011;67566;42.022;21.356;2023-12-22T11:33:44;57.67;;;40.88;;
78308;SDS011;67566;42.022;21.356;2023-12-22T11:36:14;74.97;;;42.75;;
78308;SDS011;67566;42.022;21.356;2023-12-22T11:38:40;90.63;;;50.72;;
78308;SDS011;67566;42.022;21.356;2023-12-22T11:41:11;95.10;;;52.75;;
78308;SDS011;67566;42.022;21.356;2023-12-22T11:43:40;100.78;;;57.13;;
78308;SDS011;67566;42.022;21.356;2023-12-22T11:46:08;95.35;;;53.42;;
78308;SDS011;67566;42.022;21.356;2023-12-22T11:48:34;110.10;;;57.78;;
78308;SDS011;67566;42.022;21.356;2023-12-22T11:51:00;93.45;;;49.17;;
78308;SDS011;67566;42.022;21.356;2023-12-22T11:53:25;73.55;;;41.58;;
78308;SDS011;67566;42.022;21.356;2023-12-22T11:55:59;68.55;;;41.88;;
78308;SDS011;67566;42.022;21.356;2023-12-22T12:01:09;61.83;;;35.53;;
78308;SDS011;67566;42.022;21.356;2023-12-22T12:03:40;94.78;;;53.60;;
78308;SDS011;67566;42.022;21.356;2023-12-22T12:08:54;89.90;;;49.80;;
78308;SDS011;67566;42.022;21.356;2023-12-22T12:11:21;60.53;;;36.35;;
78308;SDS011;67566;42.022;21.356;2023-12-22T12:13:47;49.30;;;29.35;;
78308;SDS011;67566;42.022;21.356;2023-12-22T12:16:14;59.67;;;34.58;;
78308;SDS011;67566;42.022;21.356;2023-12-22T12:18:44;62.38;;;39.25;;
78308;SDS011;67566;42.022;21.356;2023-12-22T12:21:10;62.10;;;40.47;;
78308;SDS011;67566;42.022;21.356;2023-12-22T12:23:36;40.63;;;25.85;;
78308;SDS011;67566;42.022;21.356;2023-12-22T12:26:04;38.50;;;21.95;;
78308;SDS011;67566;42.022;21.356;2023-12-22T12:28:32;36.47;;;21.70;;
78308;SDS011;67566;42.022;21.356;2023-12-22T12:31:05;39.63;;;21.92;;
78308;SDS011;67566;42.022;21.356;2023-12-22T12:33:31;24.08;;;14.50;;
78308;SDS011;67566;42.022;21.356;2023-12-22T12:35:58;22.48;;;12.20;;
78308;SDS011;67566;42.022;21.356;2023-12-22T12:41:16;32.40;;;20.90;;
78308;SDS011;67566;42.022;21.356;2023-12-22T12:43:49;38.75;;;23.02;;
78308;SDS011;67566;42.022;21.356;2023-12-22T12:46:16;37.00;;;23.58;;
78308;SDS011;67566;42.022;21.356;2023-12-22T12:48:42;33.00;;;21.65;;
78308;SDS011;67566;42.022;21.356;2023-12-22T12:51:07;37.17;;;22.38;;
78308;SDS011;67566;42.022;21.356;2023-12-22T12:53:33;37.05;;;21.40;;
78308;SDS011;67566;42.022;21.356;2023-12-22T12:56:01;29.65;;;17.45;;
78308;SDS011;67566;42.022;21.356;2023-12-22T12:58:27;25.98;;;17.10;;
78308;SDS011;67566;42.022;21.356;2023-12-22T13:01:09;29.95;;;17.92;;
78308;SDS011;67566;42.022;21.356;2023-12-22T13:03:53;22.70;;;14.35;;
78308;SDS011;67566;42.022;21.356;2023-12-22T13:06:19;22.48;;;12.63;;
78308;SDS011;67566;42.022;21.356;2023-12-22T13:08:52;17.02;;;12.73;;
78308;SDS011;67566;42.022;21.356;2023-12-22T13:11:24;22.13;;;11.80;;
78308;SDS011;67566;42.022;21.356;2023-12-22T13:13:52;29.27;;;19.38;;
78308;SDS011;67566;42.022;21.356;2023-12-22T13:16:21;37.03;;;22.23;;
78308;SDS011;67566;42.022;21.356;2023-12-22T13:18:51;29.13;;;16.80;;
78308;SDS011;67566;42.022;21.356;2023-12-22T13:21:17;29.27;;;12.65;;
78308;SDS011;67566;42.022;21.356;2023-12-22T13:23:44;11.60;;;6.10;;
78308;SDS011;67566;42.022;21.356;2023-12-22T13:26:19;11.27;;;6.30;;
78308;SDS011;67566;42.022;21.356;2023-12-22T13:28:45;10.25;;;6.10;;
78308;SDS011;67566;42.022;21.356;2023-12-22T13:31:12;11.30;;;7.03;;
78308;SDS011;67566;42.022;21.356;2023-12-22T13:33:42;23.13;;;11.40;;
78308;SDS011;67566;42.022;21.356;2023-12-22T13:36:07;26.67;;;10.73;;
78308;SDS011;67566;42.022;21.356;2023-12-22T13:38:33;26.38;;;12.00;;
78308;SDS011;67566;42.022;21.356;2023-12-22T13:41:00;22.88;;;11.55;;
78308;SDS011;67566;42.022;21.356;2023-12-22T13:43:30;20.65;;;9.82;;
78308;SDS011;67566;42.022;21.356;2023-12-22T13:45:55;16.95;;;9.30;;
78308;SDS011;67566;42.022;21.356;2023-12-22T13:48:22;19.50;;;10.30;;
78308;SDS011;67566;42.022;21.356;2023-12-22T13:50:57;18.58;;;8.88;;
78308;SDS011;67566;42.022;21.356;2023-12-22T13:53:24;16.88;;;8.65;;
78308;SDS011;67566;42.022;21.356;2023-12-22T13:55:59;14.40;;;8.32;;
78308;SDS011;67566;42.022;21.356;2023-12-22T13:58:25;25.25;;;11.52;;
78308;SDS011;67566;42.022;21.356;2023-12-22T14:00:52;30.63;;;13.85;;
78308;SDS011;67566;42.022;21.356;2023-12-22T14:03:18;23.65;;;11.02;;
78308;SDS011;67566;42.022;21.356;2023-12-22T14:05:47;26.20;;;13.07;;
78308;SDS011;67566;42.022;21.356;2023-12-22T14:08:14;28.83;;;15.00;;
78308;SDS011;67566;42.022;21.356;2023-12-22T14:10:47;27.83;;;15.15;;
78308;SDS011;67566;42.022;21.356;2023-12-22T14:13:15;49.33;;;21.83;;
78308;SDS011;67566;42.022;21.356;2023-12-22T14:15:43;52.22;;;21.17;;
78308;SDS011;67566;42.022;21.356;2023-12-22T14:18:09;45.58;;;21.17;;
78308;SDS011;67566;42.022;21.356;2023-12-22T14:20:35;18.98;;;9.82;;
78308;SDS011;67566;42.022;21.356;2023-12-22T14:23:01;46.17;;;21.13;;